createdAt,value
2019-02-21T00:00:58.952Z,100488.23
2019-02-21T00:05:06.994Z,100493.30
2019-02-21T00:09:14.799Z,100488.25
2019-02-21T00:13:23.013Z,100478.81
2019-02-21T00:17:30.736Z,100489.86
2019-02-21T00:21:38.925Z,100498.41
2019-02-21T00:25:46.665Z,100511.78
2019-02-21T00:29:54.246Z,100518.94
2019-02-21T00:34:02.163Z,100518.58
2019-02-21T00:38:10.093Z,100516.04
2019-02-21T00:42:17.805Z,100520.73
2019-02-21T00:46:26.101Z,100513.62
2019-02-21T00:50:35.147Z,100514.34
2019-02-21T00:54:42.868Z,100511.21
2019-02-21T00:58:51.093Z,100510.34
2019-02-21T01:02:58.923Z,100508.64
2019-02-21T01:07:07.304Z,100507.46
2019-02-21T01:11:15.362Z,100511.81
2019-02-21T01:15:23.551Z,100505.74
2019-02-21T01:19:31.543Z,100512.62
2019-02-21T01:23:39.670Z,100514.68
2019-02-21T01:27:47.590Z,100517.69
2019-02-21T01:31:55.816Z,100519.98
2019-02-21T01:36:03.622Z,100530.59
2019-02-21T01:40:12.574Z,100535.08
2019-02-21T01:44:20.865Z,100535.66
2019-02-21T01:48:29.694Z,100544.61
2019-02-21T01:52:37.823Z,100551.50
2019-02-21T01:56:45.568Z,100549.69
2019-02-21T02:00:54.255Z,100562.45
2019-02-21T02:05:01.990Z,100549.19
2019-02-21T02:09:12.472Z,100553.30
2019-02-21T02:13:24.697Z,100567.00
2019-02-21T02:17:30.628Z,100570.16
2019-02-21T02:21:38.747Z,100563.88
2019-02-21T02:25:46.960Z,100564.70
2019-02-21T02:29:54.976Z,100581.06
2019-02-21T02:34:02.679Z,100566.45
2019-02-21T02:38:10.857Z,100561.97
2019-02-21T02:42:19.539Z,100559.39
2019-02-21T02:46:27.353Z,100574.94
2019-02-21T02:50:35.068Z,100592.07
2019-02-21T02:54:44.014Z,100597.02
2019-02-21T02:58:52.404Z,100607.92
2019-02-21T03:03:00.127Z,100616.41
2019-02-21T03:07:08.392Z,100620.61
2019-02-21T03:11:16.531Z,100617.95
2019-02-21T03:15:24.262Z,100612.26
2019-02-21T03:19:31.976Z,100614.44
2019-02-21T03:23:40.210Z,100612.97
2019-02-21T03:27:47.641Z,100623.58
2019-02-21T03:31:56.282Z,100624.66
2019-02-21T03:36:04.271Z,100627.26
2019-02-21T03:40:12.356Z,100632.77
2019-02-21T03:44:20.354Z,100628.17
2019-02-21T03:48:28.168Z,100631.93
2019-02-21T03:52:35.996Z,100647.39
2019-02-21T03:56:44.237Z,100644.98
2019-02-21T04:00:52.159Z,100650.26
2019-02-21T04:05:00.368Z,100646.81
2019-02-21T04:09:10.316Z,100656.67
2019-02-21T04:13:17.918Z,100652.59
2019-02-21T04:17:26.141Z,100655.27
2019-02-21T04:21:34.453Z,100664.59
2019-02-21T04:25:42.077Z,100670.91
2019-02-21T04:29:49.963Z,100670.91
2019-02-21T04:33:58.093Z,100671.59
2019-02-21T04:38:05.934Z,100675.65
2019-02-21T04:42:14.158Z,100683.47
2019-02-21T04:46:22.007Z,100687.63
2019-02-21T04:50:29.809Z,100694.02
2019-02-21T04:54:37.970Z,100703.52
2019-02-21T04:58:45.770Z,100705.13
2019-02-21T05:02:53.923Z,100709.65
2019-02-21T05:07:01.885Z,100725.41
2019-02-21T05:11:09.801Z,100729.05
2019-02-21T05:15:17.732Z,100724.30
2019-02-21T05:19:25.447Z,100730.45
2019-02-21T05:23:33.550Z,100737.44
2019-02-21T05:27:47.693Z,100746.41
2019-02-21T05:32:40.947Z,100747.47
2019-02-21T05:37:01.718Z,100750.31
2019-02-21T05:41:23.457Z,100763.65
2019-02-21T05:45:53.301Z,100770.34
2019-02-21T05:50:34.698Z,100770.95
2019-02-21T05:55:04.131Z,100779.66
2019-02-21T05:59:44.423Z,100783.27
2019-02-21T06:04:19.584Z,100787.66
2019-02-21T06:08:44.113Z,100794.73
2019-02-21T06:13:03.817Z,100805.27
2019-02-21T06:17:30.219Z,100811.17
2019-02-21T06:22:10.492Z,100814.53
2019-02-21T06:26:23.661Z,100823.81
2019-02-21T06:30:47.147Z,100825.00
2019-02-21T06:34:54.968Z,100830.11
2019-02-21T06:39:02.713Z,100835.38
2019-02-21T06:43:11.152Z,100839.05
2019-02-21T06:47:18.973Z,100847.00
2019-02-21T06:51:26.887Z,100848.95
2019-02-21T06:55:34.695Z,100854.30
2019-02-21T06:59:45.521Z,100855.05
2019-02-21T07:03:53.886Z,100854.04
2019-02-21T07:08:02.011Z,100851.92
2019-02-21T07:12:10.673Z,100847.30
2019-02-21T07:16:18.855Z,100852.13
2019-02-21T07:20:28.922Z,100856.02
2019-02-21T07:24:38.702Z,100855.47
2019-02-21T07:28:47.127Z,100861.79
2019-02-21T07:32:58.120Z,100857.30
2019-02-21T07:37:18.683Z,100847.83
2019-02-21T07:41:22.002Z,100855.05
2019-02-21T07:45:29.702Z,100858.76
2019-02-21T07:49:37.824Z,100868.41
2019-02-21T07:53:46.113Z,100868.56
2019-02-21T07:57:53.842Z,100875.14
2019-02-21T08:02:01.877Z,100875.58
2019-02-21T08:06:09.983Z,100889.52
2019-02-21T08:10:18.092Z,100891.42
2019-02-21T08:14:26.008Z,100899.83
2019-02-21T08:18:34.132Z,100897.02
2019-02-21T08:22:41.747Z,100904.03
2019-02-21T08:26:49.653Z,100905.02
2019-02-21T08:30:58.259Z,100908.54
2019-02-21T08:35:06.957Z,100912.34
2019-02-21T08:39:15.059Z,100919.94
2019-02-21T08:43:22.968Z,100923.27
2019-02-21T08:47:31.180Z,100918.97
2019-02-21T08:51:38.976Z,100916.11
2019-02-21T08:55:46.604Z,100923.97
2019-02-21T08:59:54.837Z,100921.59
2019-02-21T09:04:10.506Z,100920.77
2019-02-21T09:08:12.330Z,100928.31
2019-02-21T09:12:20.524Z,100915.22
2019-02-21T09:16:28.592Z,100912.64
2019-02-21T09:20:36.208Z,100915.73
2019-02-21T09:24:44.448Z,100915.69
2019-02-21T09:28:52.686Z,100914.91
2019-02-21T09:33:00.471Z,100907.53
2019-02-21T09:37:08.386Z,100916.05
2019-02-21T09:41:16.192Z,100908.14
2019-02-21T09:45:24.119Z,100897.25
2019-02-21T09:49:31.930Z,100896.99
2019-02-21T09:53:39.623Z,100893.94
2019-02-21T09:57:47.454Z,100879.73
2019-02-21T10:01:57.513Z,100880.73
2019-02-21T10:06:04.952Z,100880.55
2019-02-21T10:10:14.777Z,100874.59
2019-02-21T10:14:22.602Z,100866.48
2019-02-21T10:18:30.262Z,100869.55
2019-02-21T10:22:38.597Z,100861.11
2019-02-21T10:26:46.932Z,100850.18
2019-02-21T10:30:54.722Z,100848.26
2019-02-21T10:35:02.772Z,100852.28
2019-02-21T10:39:11.384Z,100849.40
2019-02-21T10:43:19.185Z,100838.25
2019-02-21T10:47:27.116Z,100834.88
2019-02-21T10:51:35.187Z,100839.08
2019-02-21T10:55:42.953Z,100821.98
2019-02-21T10:59:51.334Z,100821.61
2019-02-21T11:03:59.046Z,100811.80
2019-02-21T11:08:06.755Z,100806.05
2019-02-21T11:12:15.061Z,100796.57
2019-02-21T11:16:22.891Z,100793.57
2019-02-21T11:20:31.005Z,100787.52
2019-02-21T11:24:39.243Z,100787.39
2019-02-21T11:28:47.359Z,100779.86
2019-02-21T11:32:55.464Z,100788.51
2019-02-21T11:37:03.681Z,100779.44
2019-02-21T11:41:11.390Z,100775.14
2019-02-21T11:45:20.035Z,100777.99
2019-02-21T11:49:27.826Z,100778.23
2019-02-21T11:53:38.004Z,100788.81
2019-02-21T11:57:45.787Z,100784.70
2019-02-21T12:01:53.622Z,100786.81
2019-02-21T12:06:01.813Z,100772.77
2019-02-21T12:10:10.578Z,100767.23
2019-02-21T12:14:18.355Z,100766.59
2019-02-21T12:18:27.342Z,100766.59
2019-02-21T12:22:35.365Z,100760.36
2019-02-21T12:26:43.137Z,100809.82
2019-02-21T12:30:51.376Z,100770.27
2019-02-21T12:34:59.357Z,100778.83
2019-02-21T12:39:07.881Z,100776.63
2019-02-21T12:43:16.379Z,100767.16
2019-02-21T12:47:24.336Z,100772.48
2019-02-21T12:51:31.964Z,100771.28
2019-02-21T12:55:39.860Z,100775.62
2019-02-21T12:59:48.148Z,100768.09
2019-02-21T13:03:57.008Z,100772.19
2019-02-21T13:08:05.526Z,100781.30
2019-02-21T13:12:13.337Z,100777.77
2019-02-21T13:16:21.150Z,100782.61
2019-02-21T13:20:29.053Z,100782.02
2019-02-21T13:24:36.764Z,100775.95
2019-02-21T13:28:44.776Z,100776.25
2019-02-21T13:32:52.814Z,100777.80
2019-02-21T13:37:00.421Z,100771.66
2019-02-21T13:41:08.529Z,100779.11
2019-02-21T13:45:17.798Z,100775.46
2019-02-21T13:49:25.902Z,100774.22
2019-02-21T13:53:33.706Z,100769.06
2019-02-21T13:57:41.323Z,100767.09
2019-02-21T14:01:50.131Z,100763.00
2019-02-21T14:06:03.580Z,100770.31
2019-02-21T14:10:08.742Z,100767.95
2019-02-21T14:14:16.999Z,100771.89
2019-02-21T14:18:24.819Z,100772.57
2019-02-21T14:22:32.537Z,100768.55
2019-02-21T14:26:41.665Z,100772.88
2019-02-21T14:30:49.714Z,100771.11
2019-02-21T14:34:57.428Z,100772.74
2019-02-21T14:39:06.588Z,100767.06
2019-02-21T14:43:17.059Z,100758.38
2019-02-21T14:47:24.807Z,100757.45
2019-02-21T14:51:33.057Z,100751.25
2019-02-21T14:55:41.052Z,100755.31
2019-02-21T14:59:48.615Z,100768.17
2019-02-21T15:03:56.680Z,100763.88
2019-02-21T15:08:04.432Z,100758.21
2019-02-21T15:12:12.602Z,100764.52
2019-02-21T15:16:20.537Z,100759.50
2019-02-21T15:20:36.299Z,100753.94
2019-02-21T15:24:37.850Z,100756.83
2019-02-21T15:28:46.092Z,100762.10
2019-02-21T15:32:53.805Z,100756.55
2019-02-21T15:37:02.094Z,100756.19
2019-02-21T15:41:10.116Z,100762.50
2019-02-21T15:45:23.367Z,100772.28
2019-02-21T15:49:29.375Z,100774.50
2019-02-21T15:53:37.700Z,100773.14
2019-02-21T15:57:46.552Z,100781.66
2019-02-21T16:01:54.609Z,100782.05
2019-02-21T16:06:02.332Z,100783.61
2019-02-21T16:10:12.207Z,100788.55
2019-02-21T16:14:20.492Z,100792.66
2019-02-21T16:18:28.167Z,100795.19
2019-02-21T16:22:37.231Z,100793.27
2019-02-21T16:26:45.557Z,100793.80
2019-02-21T16:30:53.361Z,100795.50
2019-02-21T16:35:01.482Z,100795.53
2019-02-21T16:39:10.529Z,100799.05
2019-02-21T16:43:18.635Z,100804.33
2019-02-21T16:47:26.647Z,100809.52
2019-02-21T16:51:34.789Z,100810.13
2019-02-21T16:55:42.581Z,100815.70
2019-02-21T16:59:51.224Z,100808.23
2019-02-21T17:03:59.022Z,100811.71
2019-02-21T17:08:06.802Z,100813.16
2019-02-21T17:12:14.995Z,100812.80
2019-02-21T17:16:22.609Z,100805.70
2019-02-21T17:20:30.334Z,100806.43
2019-02-21T17:24:38.408Z,100805.70
2019-02-21T17:28:46.280Z,100803.47
2019-02-21T17:32:54.315Z,100799.37
2019-02-21T17:37:02.596Z,100798.94
2019-02-21T17:41:10.346Z,100793.25
2019-02-21T17:45:19.437Z,100790.03
2019-02-21T17:49:30.135Z,100786.79
2019-02-21T17:53:39.004Z,100785.56
2019-02-21T17:57:53.008Z,100787.84
2019-02-21T18:02:01.614Z,100786.51
2019-02-21T18:06:09.359Z,100783.27
2019-02-21T18:10:18.039Z,100778.56
2019-02-21T18:14:26.312Z,100781.67
2019-02-21T18:18:34.100Z,100784.43
2019-02-21T18:22:41.937Z,100785.55
2019-02-21T18:26:51.045Z,100787.73
2019-02-21T18:30:58.947Z,100787.24
2019-02-21T18:35:07.414Z,100787.88
2019-02-21T18:39:15.882Z,100785.98
2019-02-21T18:43:24.017Z,100786.88
2019-02-21T18:47:32.155Z,100790.02
2019-02-21T18:51:39.858Z,100786.16
2019-02-21T18:55:47.767Z,100793.22
2019-02-21T18:59:56.519Z,100789.75
2019-02-21T19:04:04.605Z,100793.03
2019-02-21T19:08:14.025Z,100803.59
2019-02-21T19:12:21.892Z,100803.85
2019-02-21T19:16:29.875Z,100804.59
2019-02-21T19:20:38.372Z,100802.48
2019-02-21T19:24:46.307Z,100795.81
2019-02-21T19:28:54.967Z,100792.64
2019-02-21T19:33:03.134Z,100790.22
2019-02-21T19:37:11.316Z,100789.20
2019-02-21T19:41:20.068Z,100787.36
2019-02-21T19:45:29.267Z,100785.45
2019-02-21T19:49:37.533Z,100795.92
2019-02-21T19:53:45.733Z,100797.53
2019-02-21T19:57:53.509Z,100791.09
2019-02-21T20:02:01.846Z,100785.59
2019-02-21T20:06:09.656Z,100778.89
2019-02-21T20:10:18.680Z,100781.35
2019-02-21T20:14:26.893Z,100770.56
2019-02-21T20:18:34.732Z,100772.63
2019-02-21T20:22:42.927Z,100773.22
2019-02-21T20:26:51.154Z,100769.32
2019-02-21T20:30:58.825Z,100771.92
2019-02-21T20:35:07.399Z,100766.36
2019-02-21T20:39:15.397Z,100760.38
2019-02-21T20:43:23.309Z,100759.00
2019-02-21T20:47:31.181Z,100751.66
2019-02-21T20:51:39.150Z,100747.61
2019-02-21T20:55:47.267Z,100750.77
2019-02-21T20:59:55.672Z,100747.62
2019-02-21T21:04:04.086Z,100740.31
2019-02-21T21:08:11.750Z,100738.36
2019-02-21T21:12:19.914Z,100727.86
2019-02-21T21:16:27.993Z,100728.32
2019-02-21T21:20:35.758Z,100727.88
2019-02-21T21:24:44.066Z,100728.44
2019-02-21T21:28:51.867Z,100725.16
2019-02-21T21:32:59.688Z,100724.20
2019-02-21T21:37:07.693Z,100726.38
2019-02-21T21:41:15.643Z,100729.38
2019-02-21T21:45:23.548Z,100726.59
2019-02-21T21:49:31.458Z,100718.42
2019-02-21T21:53:39.157Z,100714.73
2019-02-21T21:57:48.702Z,100715.33
2019-02-21T22:01:57.103Z,100703.38
2019-02-21T22:06:05.253Z,100697.52
2019-02-21T22:10:14.150Z,100694.50
2019-02-21T22:14:22.954Z,100687.87
2019-02-21T22:18:30.645Z,100687.39
2019-02-21T22:22:38.780Z,100689.64
2019-02-21T22:26:46.993Z,100682.03
2019-02-21T22:30:54.785Z,100684.55
2019-02-21T22:35:02.832Z,100682.84
2019-02-21T22:39:16.436Z,100676.52
2019-02-21T22:43:20.606Z,100677.28
2019-02-21T22:47:28.912Z,100667.63
2019-02-21T22:51:37.008Z,100663.36
2019-02-21T22:55:44.912Z,100668.91
2019-02-21T22:59:53.240Z,100658.20
2019-02-21T23:04:54.889Z,100656.91
2019-02-21T23:09:02.865Z,100652.50
2019-02-21T23:13:12.712Z,100648.76
2019-02-21T23:17:20.634Z,100644.57
2019-02-21T23:21:28.919Z,100642.03
2019-02-21T23:25:37.033Z,100628.77
2019-02-21T23:29:44.853Z,100627.94
2019-02-21T23:33:56.828Z,100628.03
2019-02-21T23:38:04.749Z,100625.95
2019-02-21T23:42:12.559Z,100628.62
2019-02-21T23:46:20.781Z,100630.84
2019-02-21T23:50:28.588Z,100633.58
2019-02-21T23:54:36.901Z,100624.98
2019-02-21T23:58:45.229Z,100620.23
